Pagina principale
METAR-TAF:

METAR-TAF

Aeroporti :

Pantelleria, Italia

Aeroporto di Pantelleria

latitudine: 36-49N, longitudine: 011-58E, altezza: 191 m

Osservazione

Il bollettino è stato emesso 44 minuti fa, alle 12:55 UTC
Vento 17 kt da nord-ovest
Temperature 22°C
Umidità 65%
Pressione 1016 hPa
Visibilità 10 km o più
Poco nuvoloso ad un'altezza di 1300 ft, Cumulo congesto.

METAR: LICG 191255Z 32017KT 9999 FEW013TCU 22/15 Q1016 RMK SCT VIS MIN 9999 WIND THR08 /////KT WIND THR21 33013KT BLU

Ora: 15:39 (13:39 UTC)

Previsione

Il bollettino è stato emesso 2 ore e 39 minuti fa, alle 11:00 UTC
Previsione valida dal 19 alle 12 UTC al 19 alle 21 UTC
Vento 25 kt da nord/nord-ovest con raffiche fino a 35 kt
Visibilità 10 km o più
Nubi sparse ad un'altezza di 1500 ft

TAF: LICG 191100Z 1912/1921 33025G35KT 9999 SCT015

Osservazioni e previsioni meteorologiche di più di 4000 aeroporti (messaggi METAR e TAF).

Le stazioni disponibili sono rappresentate dai dischi gialli e rossi sulla carta.

Puntare il mouse per vedere il nome della stazione.

Clicca sopra per visualizzare le osservazioni e previsioni meteorologiche.

Per cambiare la mappa : fare clic sui pulsanti verdi con una croce nera per ingrandire, il pulsante verde con un trattino per diminuire, o sulla freccia verde per le mappe adiacenti.


METAR-TAF: